Time;durP1;ratioP1;P1;durP2;ratioP2;P2;SDS_P1;SDS_P2;PMS_P1;PMS_P2;Temp;Humidity;BMP_temperature;BMP_pressure;BME280_temperature;BME280_humidity;BME280_pressure;Samples;Min_cycle;Max_cycle;Signal;HPM_P1;HPM_P2
2022/10/24 00:00:55;;;;;;;4.05;1.55;;;;;;;;;;5031340;28;20053;-65
2022/10/24 00:03:22;;;;;;;5.65;1.02;;;;;;;;;;5031173;28;20049;-65
2022/10/24 00:05:48;;;;;;;2.03;1.17;;;;;;;;;;5031320;28;20045;-64
2022/10/24 00:08:16;;;;;;;4.75;1.38;;;;;;;;;;5030879;28;20201;-64
2022/10/24 00:10:45;;;;;;;7.07;1.42;;;;;;;;;;5031185;28;20053;-64
2022/10/24 00:13:12;;;;;;;4.63;1.85;;;;;;;;;;5031678;28;20492;-63
2022/10/24 00:15:42;;;;;;;6.47;1.52;;;;;;;;;;5031532;28;20084;-65
2022/10/24 00:18:08;;;;;;;3.67;1.10;;;;;;;;;;5030657;28;20053;-65
2022/10/24 00:20:37;;;;;;;4.07;1.73;;;;;;;;;;5034733;28;20053;-64
2022/10/24 00:23:03;;;;;;;5.07;1.20;;;;;;;;;;5034914;28;20053;-64
2022/10/24 00:25:30;;;;;;;5.50;1.13;;;;;;;;;;5034717;28;20045;-63
2022/10/24 00:27:57;;;;;;;4.88;0.95;;;;;;;;;;5034286;28;20083;-63
2022/10/24 00:30:23;;;;;;;7.90;1.58;;;;;;;;;;5034553;28;20053;-63
2022/10/24 00:32:51;;;;;;;4.47;1.10;;;;;;;;;;5034567;28;20072;-63
2022/10/24 00:35:17;;;;;;;2.97;1.10;;;;;;;;;;5034459;28;20488;-64
2022/10/24 00:37:44;;;;;;;2.45;1.15;;;;;;;;;;5033169;28;20053;-63
2022/10/24 00:40:13;;;;;;;6.10;1.23;;;;;;;;;;5034145;28;20050;-64
2022/10/24 00:42:40;;;;;;;5.10;0.90;;;;;;;;;;5033155;28;20060;-63
2022/10/24 00:45:34;;;;;;;4.60;0.95;;;;;;;;;;5034423;28;20872;-63
2022/10/24 00:48:07;;;;;;;3.08;1.05;;;;;;;;;;5033920;28;20049;-64
2022/10/24 00:50:33;;;;;;;5.88;1.20;;;;;;;;;;5017529;28;20092;-64
2022/10/24 00:53:00;;;;;;;3.90;1.15;;;;;;;;;;5034198;28;20049;-64
2022/10/24 00:55:27;;;;;;;2.15;0.90;;;;;;;;;;5034243;28;20049;-64
2022/10/24 00:57:54;;;;;;;5.25;1.10;;;;;;;;;;5034128;28;20304;-64
2022/10/24 01:00:28;;;;;;;5.97;1.30;;;;;;;;;;5032769;28;20049;-62
2022/10/24 01:02:54;;;;;;;4.68;2.05;;;;;;;;;;5034394;28;20049;-63
2022/10/24 01:05:22;;;;;;;7.85;1.20;;;;;;;;;;5032777;28;20041;-64
2022/10/24 01:08:04;;;;;;;5.80;1.60;;;;;;;;;;5015990;28;20370;-64
2022/10/24 01:10:41;;;;;;;6.32;1.45;;;;;;;;;;5033001;28;20099;-62
2022/10/24 01:13:19;;;;;;;5.32;1.08;;;;;;;;;;5032679;28;20080;-63
2022/10/24 01:15:46;;;;;;;4.43;1.52;;;;;;;;;;5033913;28;20041;-64
2022/10/24 01:18:36;;;;;;;6.85;1.42;;;;;;;;;;5033227;28;20049;-64
2022/10/24 01:21:08;;;;;;;9.93;1.98;;;;;;;;;;5019033;28;20489;-63
2022/10/24 01:23:43;;;;;;;12.45;2.25;;;;;;;;;;5032538;28;20500;-64
2022/10/24 01:26:26;;;;;;;4.03;1.50;;;;;;;;;;5032479;28;20049;-64
2022/10/24 01:29:17;;;;;;;4.03;1.35;;;;;;;;;;5031802;28;20111;-63
2022/10/24 01:31:53;;;;;;;7.28;1.30;;;;;;;;;;5031528;28;20103;-63
2022/10/24 01:34:25;;;;;;;4.38;1.25;;;;;;;;;;5032402;28;20107;-63
2022/10/24 01:37:11;;;;;;;4.73;0.83;;;;;;;;;;5016568;28;20049;-63
2022/10/24 01:39:46;;;;;;;3.65;1.02;;;;;;;;;;5016038;28;20353;-63
2022/10/24 01:42:14;;;;;;;6.15;1.30;;;;;;;;;;5032015;28;20095;-64
2022/10/24 01:44:43;;;;;;;8.32;1.38;;;;;;;;;;5015874;28;20077;-64
2022/10/24 01:47:21;;;;;;;8.02;1.30;;;;;;;;;;5015678;28;20053;-63
2022/10/24 01:49:59;;;;;;;6.95;1.08;;;;;;;;;;5016299;28;20123;-64
2022/10/24 01:52:28;;;;;;;3.38;0.80;;;;;;;;;;5017043;28;20057;-62
2022/10/24 01:54:55;;;;;;;6.97;0.98;;;;;;;;;;5015774;28;20099;-64
2022/10/24 01:57:29;;;;;;;4.90;1.67;;;;;;;;;;5033018;28;20045;-63
2022/10/24 01:59:56;;;;;;;5.10;1.10;;;;;;;;;;5032174;28;20049;-62
2022/10/24 02:02:40;;;;;;;3.67;1.10;;;;;;;;;;5032829;28;20459;-63
2022/10/24 02:05:13;;;;;;;5.10;1.33;;;;;;;;;;5017068;28;20041;-64
2022/10/24 02:07:41;;;;;;;4.38;1.00;;;;;;;;;;5032960;28;20099;-64
2022/10/24 02:10:11;;;;;;;11.32;1.73;;;;;;;;;;5014986;28;20049;-63
2022/10/24 02:12:40;;;;;;;7.82;2.00;;;;;;;;;;5031524;28;20095;-63
2022/10/24 02:15:13;;;;;;;8.32;1.50;;;;;;;;;;5015337;28;20092;-63
2022/10/24 02:17:40;;;;;;;5.20;1.13;;;;;;;;;;5032685;28;20472;-64
2022/10/24 02:20:08;;;;;;;5.28;1.00;;;;;;;;;;5032113;28;20071;-65
2022/10/24 02:22:44;;;;;;;5.00;1.60;;;;;;;;;;5031357;28;20049;-65
2022/10/24 02:25:23;;;;;;;4.95;1.58;;;;;;;;;;5015696;28;20076;-64
2022/10/24 02:28:12;;;;;;;3.40;1.20;;;;;;;;;;5031123;28;20049;-64
2022/10/24 02:30:41;;;;;;;6.93;1.30;;;;;;;;;;5031130;28;20053;-63
2022/10/24 02:33:08;;;;;;;5.95;1.25;;;;;;;;;;5015079;28;20467;-64
2022/10/24 02:35:35;;;;;;;2.88;1.20;;;;;;;;;;5032570;28;20509;-65
2022/10/24 02:38:12;;;;;;;4.72;1.70;;;;;;;;;;5014227;28;20492;-64
2022/10/24 02:40:40;;;;;;;6.20;1.48;;;;;;;;;;5031094;28;20118;-65
2022/10/24 02:43:06;;;;;;;6.80;1.23;;;;;;;;;;5031051;28;20046;-65
2022/10/24 02:45:34;;;;;;;3.10;1.05;;;;;;;;;;5030932;28;20052;-63
2022/10/24 02:48:03;;;;;;;4.28;1.30;;;;;;;;;;5014215;28;20498;-65
2022/10/24 02:50:30;;;;;;;4.30;1.30;;;;;;;;;;5031089;28;20057;-64
2022/10/24 02:52:56;;;;;;;6.05;2.03;;;;;;;;;;5014724;28;20049;-64
2022/10/24 02:55:23;;;;;;;3.15;1.35;;;;;;;;;;5032059;28;20045;-63
2022/10/24 02:57:50;;;;;;;5.32;1.27;;;;;;;;;;5031745;28;20107;-65
2022/10/24 03:00:17;;;;;;;4.95;2.03;;;;;;;;;;5031862;28;20045;-65
2022/10/24 03:02:44;;;;;;;3.67;1.48;;;;;;;;;;5031932;28;20131;-64
2022/10/24 03:05:11;;;;;;;7.78;1.77;;;;;;;;;;5031049;28;20046;-64
2022/10/24 03:07:37;;;;;;;6.18;1.50;;;;;;;;;;5031198;28;20046;-63
2022/10/24 03:10:04;;;;;;;5.13;1.25;;;;;;;;;;5031460;28;20103;-64
2022/10/24 03:12:31;;;;;;;10.23;2.22;;;;;;;;;;5032016;28;20112;-64
2022/10/24 03:14:58;;;;;;;7.20;1.58;;;;;;;;;;5031759;28;20107;-64
2022/10/24 03:17:24;;;;;;;5.93;1.88;;;;;;;;;;5032215;28;20049;-63
2022/10/24 03:19:51;;;;;;;8.55;1.48;;;;;;;;;;5046603;28;20053;-63
2022/10/24 03:22:18;;;;;;;6.30;1.50;;;;;;;;;;5046650;28;20160;-63
2022/10/24 03:24:44;;;;;;;8.73;1.92;;;;;;;;;;5047529;28;20119;-63
2022/10/24 03:27:21;;;;;;;12.95;1.85;;;;;;;;;;5048034;28;20045;-62
2022/10/24 03:29:47;;;;;;;4.50;1.30;;;;;;;;;;5047354;28;20072;-63
2022/10/24 03:32:14;;;;;;;7.57;1.75;;;;;;;;;;5048418;28;20049;-63
2022/10/24 03:34:41;;;;;;;6.95;1.50;;;;;;;;;;5046467;28;20132;-62
2022/10/24 03:37:07;;;;;;;7.38;2.13;;;;;;;;;;5046155;28;20050;-64
2022/10/24 03:39:34;;;;;;;12.15;2.25;;;;;;;;;;5045094;28;20069;-63
2022/10/24 03:42:01;;;;;;;11.82;2.40;;;;;;;;;;5043875;28;20080;-63
2022/10/24 03:44:27;;;;;;;6.47;1.73;;;;;;;;;;5047381;28;20076;-62
2022/10/24 03:46:54;;;;;;;8.32;2.20;;;;;;;;;;5047804;28;20099;-63
2022/10/24 03:49:21;;;;;;;8.75;1.95;;;;;;;;;;5046998;28;20076;-62
2022/10/24 03:51:47;;;;;;;9.63;1.98;;;;;;;;;;5047210;28;20076;-64
2022/10/24 03:54:14;;;;;;;8.82;2.20;;;;;;;;;;5048380;28;20489;-63
2022/10/24 03:56:44;;;;;;;9.05;2.70;;;;;;;;;;5050720;28;20053;-62
2022/10/24 03:59:10;;;;;;;6.82;2.10;;;;;;;;;;5046474;28;20111;-63
2022/10/24 04:01:37;;;;;;;9.57;2.63;;;;;;;;;;5035792;28;20053;-62
2022/10/24 04:04:04;;;;;;;5.88;1.95;;;;;;;;;;5035890;28;20489;-64
2022/10/24 04:06:31;;;;;;;7.65;1.90;;;;;;;;;;5035257;28;20045;-62
2022/10/24 04:09:02;;;;;;;12.45;2.00;;;;;;;;;;5035039;28;20462;-64
2022/10/24 04:11:29;;;;;;;10.30;2.35;;;;;;;;;;5035665;28;20061;-62
2022/10/24 04:13:55;;;;;;;6.25;1.88;;;;;;;;;;5035540;28;20504;-63
2022/10/24 04:16:22;;;;;;;6.20;1.67;;;;;;;;;;5035479;28;20073;-63
2022/10/24 04:18:50;;;;;;;7.20;1.58;;;;;;;;;;5034809;28;20057;-64
2022/10/24 04:21:17;;;;;;;8.30;2.40;;;;;;;;;;5034055;28;20105;-63
2022/10/24 04:23:47;;;;;;;8.23;2.35;;;;;;;;;;5035210;28;20045;-63
2022/10/24 04:26:17;;;;;;;12.57;3.42;;;;;;;;;;5034981;28;20046;-63
2022/10/24 04:28:45;;;;;;;6.85;1.75;;;;;;;;;;5033340;28;20049;-64
2022/10/24 04:31:12;;;;;;;10.32;2.25;;;;;;;;;;5033888;28;20423;-63
2022/10/24 04:33:44;;;;;;;6.35;2.10;;;;;;;;;;5035111;28;20397;-64
2022/10/24 04:36:11;;;;;;;9.00;1.70;;;;;;;;;;5034662;28;20483;-64
2022/10/24 04:38:38;;;;;;;5.72;2.00;;;;;;;;;;5034392;28;20053;-63
2022/10/24 04:41:04;;;;;;;13.30;2.42;;;;;;;;;;5033464;28;20049;-64
2022/10/24 04:43:36;;;;;;;9.80;1.80;;;;;;;;;;5034880;28;20107;-64
2022/10/24 04:46:03;;;;;;;7.65;2.00;;;;;;;;;;5033237;28;20067;-64
2022/10/24 04:48:30;;;;;;;5.68;1.58;;;;;;;;;;5033981;28;20466;-62
2022/10/24 04:50:56;;;;;;;9.68;2.20;;;;;;;;;;5034308;28;20103;-63
2022/10/24 04:53:23;;;;;;;8.23;2.13;;;;;;;;;;5034664;28;20049;-64
2022/10/24 04:55:50;;;;;;;13.65;3.17;;;;;;;;;;5034490;28;20105;-63
2022/10/24 04:58:17;;;;;;;5.45;2.30;;;;;;;;;;5033775;28;20049;-64
2022/10/24 05:00:47;;;;;;;9.93;2.80;;;;;;;;;;5034093;28;20054;-64
2022/10/24 05:03:15;;;;;;;6.50;1.85;;;;;;;;;;5084711;22;20509;-66
2022/10/24 05:05:42;;;;;;;6.97;1.92;;;;;;;;;;5093087;28;20044;-66
2022/10/24 05:08:09;;;;;;;5.88;1.63;;;;;;;;;;5093803;28;20460;-65
2022/10/24 05:10:35;;;;;;;9.43;2.40;;;;;;;;;;5093955;28;20113;-66
2022/10/24 05:13:02;;;;;;;9.27;1.77;;;;;;;;;;5093859;28;20056;-65
2022/10/24 05:15:29;;;;;;;6.57;1.85;;;;;;;;;;5094045;28;20052;-66
2022/10/24 05:17:57;;;;;;;10.93;3.78;;;;;;;;;;5093296;28;20119;-66
2022/10/24 05:20:23;;;;;;;10.20;2.55;;;;;;;;;;5093314;28;20056;-66
2022/10/24 05:22:50;;;;;;;7.50;1.88;;;;;;;;;;5093872;28;20113;-66
2022/10/24 05:25:17;;;;;;;8.20;1.67;;;;;;;;;;5093650;28;20048;-65
2022/10/24 05:27:44;;;;;;;6.95;2.55;;;;;;;;;;5093517;28;20128;-66
2022/10/24 05:30:11;;;;;;;8.07;1.85;;;;;;;;;;5093128;28;20366;-65
2022/10/24 05:32:38;;;;;;;7.97;1.92;;;;;;;;;;5093408;28;20048;-66
2022/10/24 05:35:06;;;;;;;9.43;2.28;;;;;;;;;;5093728;28;20043;-66
2022/10/24 05:37:32;;;;;;;5.53;2.05;;;;;;;;;;5093637;28;20452;-66
2022/10/24 05:39:59;;;;;;;9.88;1.92;;;;;;;;;;5079471;28;20055;-66
2022/10/24 05:42:25;;;;;;;6.75;2.40;;;;;;;;;;5073669;28;20052;-65
2022/10/24 05:44:52;;;;;;;4.38;1.70;;;;;;;;;;5073159;28;20056;-66
2022/10/24 05:47:19;;;;;;;7.20;2.30;;;;;;;;;;5073208;28;20129;-66
2022/10/24 05:49:47;;;;;;;4.80;1.50;;;;;;;;;;5072518;28;20083;-65
2022/10/24 05:52:13;;;;;;;6.07;1.90;;;;;;;;;;5073436;28;20052;-66
2022/10/24 05:54:40;;;;;;;8.25;1.80;;;;;;;;;;5093352;28;20052;-66
2022/10/24 05:57:28;;;;;;;11.65;2.63;;;;;;;;;;5092964;28;20048;-66
2022/10/24 05:59:55;;;;;;;8.35;2.42;;;;;;;;;;5092472;28;20044;-66
2022/10/24 06:02:22;;;;;;;6.93;2.20;;;;;;;;;;5092833;28;20449;-66
2022/10/24 06:04:50;;;;;;;7.30;1.95;;;;;;;;;;5093158;28;20536;-65
2022/10/24 06:07:17;;;;;;;9.27;2.50;;;;;;;;;;5081281;28;20049;-66
2022/10/24 06:09:44;;;;;;;9.63;1.77;;;;;;;;;;5071954;28;20568;-66
2022/10/24 06:12:10;;;;;;;9.65;2.15;;;;;;;;;;5072445;28;20097;-65
2022/10/24 06:14:37;;;;;;;11.18;2.88;;;;;;;;;;5072593;28;20093;-66
2022/10/24 06:17:05;;;;;;;11.98;3.45;;;;;;;;;;5072265;28;20098;-67
2022/10/24 06:19:31;;;;;;;9.80;3.15;;;;;;;;;;5071891;28;20108;-67
2022/10/24 06:21:58;;;;;;;7.88;3.00;;;;;;;;;;5072906;28;20098;-66
2022/10/24 06:24:25;;;;;;;8.25;2.88;;;;;;;;;;5072314;28;20465;-67
2022/10/24 06:26:51;;;;;;;7.80;1.98;;;;;;;;;;5072427;28;20113;-71
2022/10/24 06:29:18;;;;;;;5.05;1.58;;;;;;;;;;5071931;28;20465;-66
2022/10/24 06:31:44;;;;;;;4.93;2.17;;;;;;;;;;5072409;28;20052;-67
2022/10/24 06:34:11;;;;;;;10.63;2.67;;;;;;;;;;5072376;28;20491;-67
2022/10/24 06:36:38;;;;;;;6.00;2.65;;;;;;;;;;5072123;28;20064;-67
2022/10/24 06:39:09;;;;;;;7.38;2.45;;;;;;;;;;5071387;28;20045;-66
2022/10/24 06:41:36;;;;;;;7.90;2.03;;;;;;;;;;5072269;28;20461;-67
2022/10/24 06:44:03;;;;;;;6.30;2.47;;;;;;;;;;5072218;28;20056;-66
2022/10/24 06:46:35;;;;;;;10.45;2.45;;;;;;;;;;5072016;28;20040;-66
2022/10/24 06:49:02;;;;;;;11.73;2.70;;;;;;;;;;5071323;28;20056;-66
2022/10/24 06:51:28;;;;;;;11.38;3.00;;;;;;;;;;5071832;28;20094;-65
2022/10/24 06:53:56;;;;;;;8.15;2.45;;;;;;;;;;5071738;28;20048;-66
2022/10/24 06:56:23;;;;;;;6.25;2.40;;;;;;;;;;5071897;28;20049;-66
2022/10/24 06:58:49;;;;;;;12.35;3.50;;;;;;;;;;5070136;28;20044;-67
2022/10/24 07:01:19;;;;;;;10.75;2.40;;;;;;;;;;5071783;28;20102;-67
2022/10/24 07:03:46;;;;;;;4.80;2.05;;;;;;;;;;5071499;28;20482;-67
2022/10/24 07:06:17;;;;;;;6.15;2.35;;;;;;;;;;5071593;28;20056;-66
2022/10/24 07:08:44;;;;;;;4.43;2.08;;;;;;;;;;5071094;28;20055;-67
2022/10/24 07:11:11;;;;;;;4.32;2.30;;;;;;;;;;5071880;28;20049;-66
2022/10/24 07:13:38;;;;;;;8.48;2.40;;;;;;;;;;5071593;28;20052;-67
2022/10/24 07:16:05;;;;;;;15.52;3.42;;;;;;;;;;5071773;28;20048;-67
2022/10/24 07:18:31;;;;;;;9.05;3.35;;;;;;;;;;5071022;28;20106;-66
2022/10/24 07:21:06;;;;;;;10.57;3.00;;;;;;;;;;5071527;28;20057;-67
2022/10/24 07:23:33;;;;;;;10.75;3.65;;;;;;;;;;5080793;28;20097;-67
2022/10/24 07:26:05;;;;;;;8.20;4.05;;;;;;;;;;5091783;28;20052;-67
2022/10/24 07:28:32;;;;;;;9.23;3.15;;;;;;;;;;5091867;28;20464;-67
2022/10/24 07:31:00;;;;;;;13.07;3.10;;;;;;;;;;5096016;28;20051;-67
2022/10/24 07:33:26;;;;;;;10.32;2.90;;;;;;;;;;5095692;28;20077;-67
2022/10/24 07:35:53;;;;;;;9.07;3.75;;;;;;;;;;5087123;28;20466;-67
2022/10/24 07:38:21;;;;;;;9.35;3.00;;;;;;;;;;5086869;28;20406;-66
2022/10/24 07:40:47;;;;;;;6.15;2.75;;;;;;;;;;5095793;28;20056;-67
2022/10/24 07:43:14;;;;;;;10.32;2.78;;;;;;;;;;5095805;28;20516;-67
2022/10/24 07:45:41;;;;;;;6.97;2.97;;;;;;;;;;5095670;28;20105;-67
2022/10/24 07:48:12;;;;;;;9.93;2.78;;;;;;;;;;5095109;28;20040;-68
2022/10/24 07:50:43;;;;;;;9.10;2.78;;;;;;;;;;5095663;28;20047;-66
2022/10/24 07:53:10;;;;;;;11.20;3.22;;;;;;;;;;5095611;28;20047;-67
2022/10/24 07:55:42;;;;;;;11.98;3.22;;;;;;;;;;5095528;28;20052;-66
2022/10/24 07:58:10;;;;;;;6.80;2.60;;;;;;;;;;5094869;28;20048;-66
2022/10/24 08:00:36;;;;;;;8.77;3.80;;;;;;;;;;5095603;28;20064;-66
2022/10/24 08:03:10;;;;;;;9.95;2.53;;;;;;;;;;5095188;28;20498;-66
2022/10/24 08:05:38;;;;;;;13.38;2.67;;;;;;;;;;5076473;28;20102;-67
2022/10/24 08:08:05;;;;;;;6.50;2.65;;;;;;;;;;5074485;28;20491;-67
2022/10/24 08:10:52;;;;;;;9.20;2.42;;;;;;;;;;5074679;28;20107;-67
2022/10/24 08:13:19;;;;;;;8.68;2.67;;;;;;;;;;5075212;28;20084;-67
2022/10/24 08:15:45;;;;;;;8.15;2.13;;;;;;;;;;5074763;28;20078;-66
2022/10/24 08:18:12;;;;;;;6.95;2.10;;;;;;;;;;5083533;28;20490;-66
2022/10/24 08:20:39;;;;;;;8.38;3.10;;;;;;;;;;5094955;28;20048;-66
2022/10/24 08:23:05;;;;;;;9.45;3.17;;;;;;;;;;5094990;28;20494;-66
2022/10/24 08:25:32;;;;;;;10.20;2.55;;;;;;;;;;5094961;28;20101;-67
2022/10/24 08:27:58;;;;;;;9.77;2.25;;;;;;;;;;5094295;28;20074;-66
2022/10/24 08:30:29;;;;;;;11.60;2.67;;;;;;;;;;5094900;28;20052;-67
2022/10/24 08:32:56;;;;;;;6.63;1.83;;;;;;;;;;5094803;28;20059;-66
2022/10/24 08:35:22;;;;;;;5.25;1.80;;;;;;;;;;5094858;28;20498;-67
2022/10/24 08:37:49;;;;;;;6.95;2.17;;;;;;;;;;5094009;28;20048;-66
2022/10/24 08:40:18;;;;;;;6.15;1.70;;;;;;;;;;5094283;28;20080;-67
2022/10/24 08:42:44;;;;;;;6.93;1.70;;;;;;;;;;5093297;28;20048;-67
2022/10/24 08:45:16;;;;;;;10.52;2.38;;;;;;;;;;5094692;28;20078;-66
2022/10/24 08:47:54;;;;;;;6.18;2.03;;;;;;;;;;5074229;28;20383;-67
2022/10/24 08:50:24;;;;;;;10.13;2.20;;;;;;;;;;5093414;28;20051;-66
2022/10/24 08:53:12;;;;;;;10.23;2.00;;;;;;;;;;5093384;28;20102;-66
2022/10/24 08:55:39;;;;;;;6.15;2.13;;;;;;;;;;5078523;28;20494;-67
2022/10/24 08:58:24;;;;;;;5.65;2.33;;;;;;;;;;5094234;28;20048;-66
2022/10/24 09:00:53;;;;;;;6.78;2.33;;;;;;;;;;5092704;28;20165;-65
2022/10/24 09:03:30;;;;;;;6.75;1.88;;;;;;;;;;5076171;28;20094;-66
2022/10/24 09:06:22;;;;;;;8.80;2.25;;;;;;;;;;5094069;28;20083;-65
2022/10/24 09:08:53;;;;;;;7.57;2.50;;;;;;;;;;5075668;28;20048;-66
2022/10/24 09:11:44;;;;;;;7.78;2.45;;;;;;;;;;5092786;28;20044;-65
2022/10/24 09:14:21;;;;;;;8.48;2.13;;;;;;;;;;5093949;28;20051;-66
2022/10/24 09:16:52;;;;;;;4.55;1.80;;;;;;;;;;5094157;28;20052;-64
2022/10/24 09:19:23;;;;;;;6.18;1.80;;;;;;;;;;5092001;28;20422;-66
2022/10/24 09:21:51;;;;;;;6.05;1.70;;;;;;;;;;5093793;28;20052;-65
2022/10/24 09:24:48;;;;;;;5.45;2.13;;;;;;;;;;5092459;28;20109;-64
2022/10/24 09:27:18;;;;;;;6.50;2.03;;;;;;;;;;5093875;28;20113;-65
2022/10/24 09:29:45;;;;;;;9.27;2.10;;;;;;;;;;5075470;28;20056;-65
2022/10/24 09:32:19;;;;;;;6.57;2.28;;;;;;;;;;5093458;28;20589;-65
2022/10/24 09:34:46;;;;;;;3.50;1.88;;;;;;;;;;5092660;28;20104;-65
2022/10/24 09:37:37;;;;;;;9.75;2.85;;;;;;;;;;5092472;28;20052;-65
2022/10/24 09:40:12;;;;;;;7.15;2.03;;;;;;;;;;5093017;28;20147;-65
2022/10/24 09:42:39;;;;;;;8.18;2.10;;;;;;;;;;5093234;28;20056;-64
2022/10/24 09:45:30;;;;;;;10.50;2.67;;;;;;;;;;5072134;28;20056;-65
2022/10/24 09:48:03;;;;;;;8.65;1.95;;;;;;;;;;5071530;28;20045;-65
2022/10/24 09:50:31;;;;;;;11.93;2.05;;;;;;;;;;5071765;28;20052;-65
2022/10/24 09:52:58;;;;;;;11.40;2.20;;;;;;;;;;5070980;28;20098;-65
2022/10/24 09:55:27;;;;;;;6.72;2.30;;;;;;;;;;5071648;28;20102;-64
2022/10/24 09:57:56;;;;;;;6.53;2.50;;;;;;;;;;5076355;28;20296;-66
2022/10/24 10:00:34;;;;;;;10.02;1.95;;;;;;;;;;5092102;28;20572;-65
2022/10/24 10:03:06;;;;;;;6.30;1.80;;;;;;;;;;5092865;28;20055;-65
2022/10/24 10:05:42;;;;;;;7.13;2.27;;;;;;;;;;5091646;28;20561;-66
2022/10/24 10:08:26;;;;;;;8.82;1.95;;;;;;;;;;5091314;28;20044;-65
2022/10/24 10:10:57;;;;;;;4.03;2.17;;;;;;;;;;5091659;28;20113;-65
2022/10/24 10:13:26;;;;;;;7.63;2.65;;;;;;;;;;5091510;28;20113;-65
2022/10/24 10:15:52;;;;;;;5.35;1.45;;;;;;;;;;5091229;28;20048;-66
2022/10/24 10:18:19;;;;;;;6.47;2.25;;;;;;;;;;5091946;28;20117;-65
2022/10/24 10:20:45;;;;;;;4.95;1.70;;;;;;;;;;5092237;28;20093;-66
2022/10/24 10:23:23;;;;;;;7.28;1.85;;;;;;;;;;5074718;28;20078;-65
2022/10/24 10:26:01;;;;;;;6.80;1.98;;;;;;;;;;5092481;28;20048;-65
2022/10/24 10:28:28;;;;;;;4.03;1.58;;;;;;;;;;5071113;28;20119;-65
2022/10/24 10:30:57;;;;;;;6.57;2.03;;;;;;;;;;5072025;28;20101;-66
2022/10/24 10:33:55;;;;;;;8.15;2.05;;;;;;;;;;5070775;28;20257;-65
2022/10/24 10:36:27;;;;;;;4.45;1.88;;;;;;;;;;5071870;28;20052;-65
2022/10/24 10:39:03;;;;;;;7.40;1.95;;;;;;;;;;5086276;28;20079;-64
2022/10/24 10:41:38;;;;;;;4.82;1.52;;;;;;;;;;5070737;28;20197;-64
2022/10/24 10:44:31;;;;;;;2.83;1.48;;;;;;;;;;5070439;28;20053;-65
2022/10/24 10:47:04;;;;;;;6.97;2.70;;;;;;;;;;5086857;28;20048;-66
2022/10/24 10:49:38;;;;;;;5.00;1.60;;;;;;;;;;5071096;28;20461;-65
2022/10/24 10:52:06;;;;;;;4.45;1.40;;;;;;;;;;5086175;28;20136;-66
2022/10/24 10:54:56;;;;;;;5.53;1.60;;;;;;;;;;5071643;28;20052;-66
2022/10/24 10:57:55;;;;;;;7.00;1.73;;;;;;;;;;5090864;28;20101;-65
2022/10/24 11:00:33;;;;;;;3.65;1.52;;;;;;;;;;5050911;28;20093;-66
2022/10/24 11:03:09;;;;;;;9.05;2.25;;;;;;;;;;5114105;22;20056;-61
2022/10/24 11:05:36;;;;;;;4.32;1.85;;;;;;;;;;5031778;28;20302;-61
2022/10/24 11:08:12;;;;;;;4.68;1.20;;;;;;;;;;5031633;28;20049;-63
2022/10/24 11:10:48;;;;;;;2.13;1.20;;;;;;;;;;5031251;28;20059;-63
2022/10/24 11:13:18;;;;;;;2.20;1.10;;;;;;;;;;5032051;28;20082;-62
2022/10/24 11:15:47;;;;;;;3.25;1.80;;;;;;;;;;5015147;28;20053;-62
2022/10/24 11:18:25;;;;;;;4.40;1.10;;;;;;;;;;5031930;28;20447;-62
2022/10/24 11:21:04;;;;;;;3.10;1.08;;;;;;;;;;5016818;28;20054;-62
2022/10/24 11:23:33;;;;;;;;;;;;;;;;;;5015361;28;20099;-62
2022/10/24 11:26:18;;;;;;;3.90;1.15;;;;;;;;;;5030695;28;20376;-62
2022/10/24 11:29:05;;;;;;;4.72;1.38;;;;;;;;;;5031470;28;20087;-62
2022/10/24 11:31:36;;;;;;;4.55;1.00;;;;;;;;;;5032311;28;20099;-62
2022/10/24 11:34:08;;;;;;;6.20;2.05;;;;;;;;;;5030679;28;20107;-62
2022/10/24 11:36:48;;;;;;;6.10;1.60;;;;;;;;;;5034505;28;20454;-62
2022/10/24 11:39:37;;;;;;;2.08;1.00;;;;;;;;;;5031686;28;20048;-62
2022/10/24 11:42:18;;;;;;;5.22;1.58;;;;;;;;;;5030580;28;20049;-62
2022/10/24 11:44:55;;;;;;;3.97;1.17;;;;;;;;;;5030546;28;20050;-62
2022/10/24 11:47:22;;;;;;;4.45;1.30;;;;;;;;;;5030443;28;20053;-62
2022/10/24 11:50:00;;;;;;;2.90;0.85;;;;;;;;;;5031308;28;20053;-62
2022/10/24 11:52:29;;;;;;;5.53;1.10;;;;;;;;;;5030646;28;20064;-62
2022/10/24 11:55:18;;;;;;;2.03;1.17;;;;;;;;;;5030840;28;20116;-62
2022/10/24 11:57:47;;;;;;;4.43;1.25;;;;;;;;;;5031091;28;20049;-62
2022/10/24 12:00:26;;;;;;;3.95;0.88;;;;;;;;;;5033332;28;20119;-62
2022/10/24 12:03:32;;;;;;;3.25;1.15;;;;;;;;;;5040842;28;20574;-63
2022/10/24 12:06:23;;;;;;;4.40;0.85;;;;;;;;;;5020437;28;20045;-63
2022/10/24 12:08:59;;;;;;;3.92;1.17;;;;;;;;;;5055417;28;20064;-63
2022/10/24 12:11:34;;;;;;;1.55;0.93;;;;;;;;;;5046232;28;20049;-63
2022/10/24 12:14:03;;;;;;;4.57;0.98;;;;;;;;;;5061099;28;20045;-63
2022/10/24 12:17:12;;;;;;;3.70;1.00;;;;;;;;;;5049619;28;20053;-63
2022/10/24 12:19:39;;;;;;;1.42;0.80;;;;;;;;;;5046954;28;20049;-63
2022/10/24 12:22:05;;;;;;;2.88;1.20;;;;;;;;;;5065298;28;20049;-63
2022/10/24 12:24:37;;;;;;;4.65;0.95;;;;;;;;;;5066132;28;20049;-63
2022/10/24 12:27:06;;;;;;;6.00;1.50;;;;;;;;;;5051982;28;20050;-63
2022/10/24 12:29:34;;;;;;;1.88;0.90;;;;;;;;;;5049031;28;20300;-63
2022/10/24 12:32:40;;;;;;;2.75;1.00;;;;;;;;;;5048746;28;20063;-63
2022/10/24 12:35:29;;;;;;;2.13;0.80;;;;;;;;;;5005363;28;20112;-62
2022/10/24 12:37:57;;;;;;;1.92;0.80;;;;;;;;;;5026642;28;20103;-62
2022/10/24 12:40:45;;;;;;;3.33;1.00;;;;;;;;;;5050703;28;20615;-62
2022/10/24 12:43:16;;;;;;;3.65;1.40;;;;;;;;;;5035538;28;20428;-62
2022/10/24 12:45:43;;;;;;;2.47;0.75;;;;;;;;;;5034012;28;20053;-62
2022/10/24 12:48:24;;;;;;;3.03;0.95;;;;;;;;;;5034829;28;20107;-62
2022/10/24 12:51:23;;;;;;;2.53;0.98;;;;;;;;;;5033880;28;20274;-63
2022/10/24 12:54:12;;;;;;;2.33;1.08;;;;;;;;;;5035071;28;20071;-62
2022/10/24 12:56:51;;;;;;;4.50;0.93;;;;;;;;;;5035294;28;20076;-62
2022/10/24 12:59:24;;;;;;;5.55;0.88;;;;;;;;;;5033218;28;20393;-62
2022/10/24 13:02:06;;;;;;;2.05;0.80;;;;;;;;;;5035020;28;20053;-62
2022/10/24 13:04:55;;;;;;;2.63;0.93;;;;;;;;;;5049695;28;20060;-62
2022/10/24 13:07:40;;;;;;;3.00;1.13;;;;;;;;;;5034116;28;20095;-62
2022/10/24 13:10:30;;;;;;;2.85;0.90;;;;;;;;;;5033830;28;20053;-62
2022/10/24 13:13:19;;;;;;;2.90;0.70;;;;;;;;;;5033919;28;20107;-62
2022/10/24 13:15:46;;;;;;;2.38;1.10;;;;;;;;;;5005867;28;20049;-62
2022/10/24 13:18:21;;;;;;;2.85;0.80;;;;;;;;;;5034100;28;20046;-62
2022/10/24 13:20:49;;;;;;;1.92;0.70;;;;;;;;;;5034012;28;20056;-62
2022/10/24 13:23:20;;;;;;;2.25;0.77;;;;;;;;;;5032621;28;20405;-63
2022/10/24 13:25:47;;;;;;;1.27;0.70;;;;;;;;;;5033412;28;20462;-62
2022/10/24 13:28:23;;;;;;;2.00;0.80;;;;;;;;;;5048473;28;20123;-62
2022/10/24 13:30:58;;;;;;;2.05;0.77;;;;;;;;;;5033940;28;20049;-63
2022/10/24 13:33:31;;;;;;;1.95;0.80;;;;;;;;;;5033606;28;20060;-63
2022/10/24 13:36:15;;;;;;;2.83;0.85;;;;;;;;;;5033361;28;20053;-62
2022/10/24 13:38:57;;;;;;;2.50;0.90;;;;;;;;;;5048307;28;20046;-62
2022/10/24 13:41:34;;;;;;;1.67;0.57;;;;;;;;;;5033449;28;20103;-62
2022/10/24 13:44:09;;;;;;;2.72;0.90;;;;;;;;;;5048129;28;20080;-63
2022/10/24 13:46:53;;;;;;;4.38;1.13;;;;;;;;;;5048847;28;20099;-62
2022/10/24 13:49:35;;;;;;;5.10;1.13;;;;;;;;;;5031860;28;20136;-62
2022/10/24 13:52:08;;;;;;;2.38;0.70;;;;;;;;;;5048691;28;20053;-62
2022/10/24 13:54:35;;;;;;;4.00;1.58;;;;;;;;;;5031888;28;20053;-63
2022/10/24 13:57:27;;;;;;;3.30;0.95;;;;;;;;;;5016145;28;20099;-63
2022/10/24 13:59:56;;;;;;;4.05;1.27;;;;;;;;;;5047283;28;20504;-63
2022/10/24 14:02:24;;;;;;;2.33;1.10;;;;;;;;;;5033073;28;20045;-63
2022/10/24 14:04:56;;;;;;;4.20;0.80;;;;;;;;;;5047430;28;20045;-60
2022/10/24 14:07:29;;;;;;;2.33;0.68;;;;;;;;;;5033093;28;20053;-62
2022/10/24 14:10:01;;;;;;;2.38;0.95;;;;;;;;;;5031688;28;20397;-62
2022/10/24 14:12:29;;;;;;;4.25;1.73;;;;;;;;;;5048522;28;20496;-62
2022/10/24 14:14:57;;;;;;;3.65;0.90;;;;;;;;;;5031851;28;20401;-62
2022/10/24 14:17:34;;;;;;;2.60;1.25;;;;;;;;;;5048079;28;20053;-62
2022/10/24 14:20:12;;;;;;;2.15;1.13;;;;;;;;;;5031603;28;20050;-62
2022/10/24 14:22:39;;;;;;;3.97;1.10;;;;;;;;;;5032870;28;20053;-62
2022/10/24 14:25:31;;;;;;;1.92;0.88;;;;;;;;;;5032809;28;20053;-62
2022/10/24 14:28:00;;;;;;;1.77;1.13;;;;;;;;;;5030911;28;20056;-62
2022/10/24 14:30:29;;;;;;;1.77;0.88;;;;;;;;;;5047876;28;20045;-62
2022/10/24 14:33:14;;;;;;;6.35;0.98;;;;;;;;;;5032706;28;20080;-62
2022/10/24 14:35:40;;;;;;;2.45;0.95;;;;;;;;;;5049568;28;20508;-62
2022/10/24 14:38:09;;;;;;;4.32;1.00;;;;;;;;;;5035435;28;20107;-63
2022/10/24 14:40:36;;;;;;;5.55;1.20;;;;;;;;;;5018062;28;20504;-64
2022/10/24 14:43:02;;;;;;;3.60;1.10;;;;;;;;;;5020513;28;20103;-63
2022/10/24 14:45:30;;;;;;;4.18;1.17;;;;;;;;;;5035909;28;20107;-62
2022/10/24 14:47:59;;;;;;;3.95;1.77;;;;;;;;;;5033338;28;20103;-62
2022/10/24 14:50:40;;;;;;;8.68;4.95;;;;;;;;;;5049411;28;20065;-62
2022/10/24 14:53:23;;;;;;;3.92;2.25;;;;;;;;;;5032618;28;20103;-62
2022/10/24 14:55:55;;;;;;;8.10;2.47;;;;;;;;;;5048078;28;20056;-63
2022/10/24 14:58:28;;;;;;;5.50;2.07;;;;;;;;;;5031384;28;20108;-62
2022/10/24 15:00:55;;;;;;;9.45;6.28;;;;;;;;;;5048712;28;20388;-62
2022/10/24 15:03:24;;;;;;;3.55;1.60;;;;;;;;;;5031455;28;20103;-62
2022/10/24 15:05:58;;;;;;;15.98;14.27;;;;;;;;;;5032483;28;20474;-62
2022/10/24 15:08:49;;;;;;;23.40;18.90;;;;;;;;;;5031809;28;20057;-62